Time;durP1;ratioP1;P1;durP2;ratioP2;P2;SDS_P1;SDS_P2;PMS_P1;PMS_P2;Temp;Humidity;BMP_temperature;BMP_pressure;BME280_temperature;BME280_humidity;BME280_pressure;Samples;Min_cycle;Max_cycle;Signal;HPM_P1;HPM_P2
2022/05/25 03:03:46;;;;;;;12.30;10.98;;;;;;;15.28;100.00;99405.97;5008308;28;20050;-86
2022/05/25 03:06:11;;;;;;;14.35;12.07;;;;;;;15.23;100.00;99395.47;5020630;28;20077;-85
2022/05/25 03:08:37;;;;;;;15.90;11.73;;;;;;;15.22;100.00;99396.69;5009475;28;20042;-87
2022/05/25 03:11:04;;;;;;;14.27;11.40;;;;;;;15.29;100.00;99391.50;5007347;28;20499;-87
2022/05/25 03:13:35;;;;;;;12.20;10.88;;;;;;;15.28;100.00;99378.78;5007626;28;20030;-87
2022/05/25 03:16:00;;;;;;;11.77;10.60;;;;;;;15.34;100.00;99384.44;4992503;28;20087;-86
2022/05/25 03:18:26;;;;;;;12.02;10.82;;;;;;;15.44;100.00;99399.84;4992419;28;20450;-87
2022/05/25 03:20:53;;;;;;;13.55;11.07;;;;;;;15.47;100.00;99384.91;4992539;28;20049;-87
2022/05/25 03:23:18;;;;;;;12.30;11.05;;;;;;;15.48;100.00;99380.84;4975740;28;20034;-87
2022/05/25 03:25:45;;;;;;;12.40;10.75;;;;;;;15.52;100.00;99398.22;4991211;28;20050;-87
2022/05/25 03:28:11;;;;;;;13.18;10.90;;;;;;;15.50;100.00;99395.13;5010193;28;20499;-86
2022/05/25 03:30:36;;;;;;;12.32;11.02;;;;;;;15.37;100.00;99391.84;4978624;28;20029;-86
2022/05/25 03:33:02;;;;;;;12.07;10.88;;;;;;;15.43;100.00;99400.34;5008942;28;20038;-86
2022/05/25 03:35:28;;;;;;;12.80;11.50;;;;;;;15.44;100.00;99401.88;4996187;28;20029;-86
2022/05/25 03:37:53;;;;;;;13.02;11.70;;;;;;;15.43;100.00;99403.13;4990071;28;20391;-86
2022/05/25 03:40:19;;;;;;;14.23;12.82;;;;;;;15.40;100.00;99416.06;4990905;28;20064;-87
2022/05/25 03:42:45;;;;;;;13.13;11.90;;;;;;;15.37;100.00;99414.97;4988514;28;20065;-86
2022/05/25 03:45:12;;;;;;;13.98;12.68;;;;;;;15.30;100.00;99414.63;4982386;28;20037;-86
2022/05/25 03:47:38;;;;;;;14.20;12.80;;;;;;;15.24;100.00;99417.34;4991903;28;20034;-86
2022/05/25 03:50:03;;;;;;;15.57;14.10;;;;;;;15.23;100.00;99426.19;5010462;28;20033;-87
2022/05/25 03:52:29;;;;;;;16.13;14.48;;;;;;;15.19;100.00;99443.16;5008056;28;20507;-87
2022/05/25 03:54:55;;;;;;;16.83;15.13;;;;;;;15.25;100.00;99435.63;5010845;28;20036;-87
2022/05/25 03:57:20;;;;;;;17.40;15.73;;;;;;;15.28;100.00;99436.69;5009521;28;20045;-87
2022/05/25 03:59:46;;;;;;;17.20;15.50;;;;;;;15.31;100.00;99430.13;4992214;28;20048;-87
2022/05/25 04:02:12;;;;;;;17.42;15.70;;;;;;;15.34;100.00;99431.94;4997236;28;20132;-87
2022/05/25 04:04:38;;;;;;;17.10;15.48;;;;;;;15.41;100.00;99439.94;4988737;28;20037;-87
2022/05/25 04:07:04;;;;;;;16.40;14.80;;;;;;;15.41;100.00;99431.53;5008381;28;20132;-87
2022/05/25 04:09:30;;;;;;;16.83;15.18;;;;;;;15.51;100.00;99444.19;5004333;28;20041;-87
2022/05/25 04:11:55;;;;;;;15.80;14.20;;;;;;;15.53;100.00;99438.88;5000668;28;20089;-87
2022/05/25 04:14:21;;;;;;;16.60;14.90;;;;;;;15.59;100.00;99450.16;4975274;28;20026;-87
2022/05/25 04:16:46;;;;;;;17.52;15.75;;;;;;;15.64;100.00;99443.88;5010546;28;20049;-87
2022/05/25 04:19:12;;;;;;;17.05;15.32;;;;;;;15.62;100.00;99446.38;5010734;28;20030;-86
2022/05/25 04:21:39;;;;;;;17.65;15.77;;;;;;;15.59;100.00;99447.34;5007576;28;20399;-86
2022/05/25 04:24:05;;;;;;;17.20;15.40;;;;;;;15.53;100.00;99447.25;5010928;28;20030;-88
2022/05/25 04:26:31;;;;;;;17.02;15.43;;;;;;;15.58;100.00;99452.19;4979493;28;20209;-85
2022/05/25 04:28:58;;;;;;;17.15;15.40;;;;;;;15.57;100.00;99461.06;4993312;28;20133;-86
2022/05/25 04:31:23;;;;;;;17.67;15.98;;;;;;;15.64;100.00;99463.44;5013546;28;20088;-86
2022/05/25 04:33:49;;;;;;;19.13;16.05;;;;;;;15.65;100.00;99474.13;4991762;28;20030;-86
2022/05/25 04:36:15;;;;;;;17.92;16.15;;;;;;;15.70;100.00;99470.66;4980382;28;20602;-86
2022/05/25 04:38:40;;;;;;;17.92;16.02;;;;;;;15.72;100.00;99470.97;5002366;28;20029;-88
2022/05/25 04:41:06;;;;;;;17.98;16.23;;;;;;;15.76;100.00;99473.56;4986397;28;20072;-86
2022/05/25 04:43:32;;;;;;;18.98;16.92;;;;;;;15.72;100.00;99467.38;4976738;28;20034;-87
2022/05/25 04:46:01;;;;;;;17.92;16.08;;;;;;;15.76;100.00;99474.31;4981967;28;20034;-87
2022/05/25 04:48:27;;;;;;;17.92;15.75;;;;;;;15.94;100.00;99480.91;4984614;28;20058;-85
2022/05/25 04:50:54;;;;;;;17.48;15.73;;;;;;;15.98;100.00;99490.63;5004246;28;20129;-85
2022/05/25 04:53:21;;;;;;;17.98;16.17;;;;;;;16.07;100.00;99498.13;4974507;28;20711;-85
2022/05/25 04:58:40;;;;;;;17.58;15.77;;;;;;;16.26;100.00;99505.00;5002841;28;20517;-85
2022/05/25 05:01:08;;;;;;;17.13;15.43;;;;;;;16.38;100.00;99506.69;5001582;28;20088;-88
2022/05/25 05:03:34;;;;;;;17.80;15.80;;;;;;;16.39;100.00;99491.44;5026924;28;20041;-88
2022/05/25 05:06:01;;;;;;;17.92;15.82;;;;;;;16.53;100.00;99504.63;5031428;28;20036;-88
2022/05/25 05:08:26;;;;;;;19.00;16.55;;;;;;;16.59;100.00;99515.91;4998616;28;20495;-88
2022/05/25 05:10:52;;;;;;;19.33;17.38;;;;;;;16.70;100.00;99507.66;5028428;28;20061;-88
2022/05/25 05:13:18;;;;;;;19.15;17.25;;;;;;;16.70;100.00;99516.03;5030612;28;20030;-88
2022/05/25 05:15:48;;;;;;;20.00;17.98;;;;;;;16.74;100.00;99517.34;5015788;28;20390;-87
2022/05/25 05:18:15;;;;;;;20.08;18.02;;;;;;;16.74;100.00;99508.19;5013599;28;20534;-86
2022/05/25 05:21:03;;;;;;;19.90;18.08;;;;;;;17.00;100.00;99525.03;5026346;28;20099;-87
2022/05/25 05:23:31;;;;;;;21.25;19.00;;;;;;;17.05;100.00;99527.13;5014001;28;20069;-88
2022/05/25 05:25:57;;;;;;;21.40;17.75;;;;;;;17.20;100.00;99525.75;5031571;28;20060;-86
2022/05/25 05:28:30;;;;;;;21.33;18.98;;;;;;;17.25;100.00;99536.25;5028849;28;20075;-86
2022/05/25 05:30:57;;;;;;;21.15;18.90;;;;;;;17.37;100.00;99539.16;5028443;28;20239;-87
2022/05/25 05:33:24;;;;;;;21.08;18.85;;;;;;;17.47;100.00;99534.94;5026721;28;20041;-87
2022/05/25 05:35:55;;;;;;;19.85;18.02;;;;;;;17.61;100.00;99543.22;5007988;28;20411;-88
2022/05/25 05:38:22;;;;;;;19.88;18.00;;;;;;;17.84;100.00;99537.78;5006604;28;20092;-88
2022/05/25 05:40:47;;;;;;;20.45;16.83;;;;;;;17.93;100.00;99534.78;5022522;28;20433;-87
2022/05/25 05:43:13;;;;;;;18.88;16.92;;;;;;;18.06;100.00;99549.97;5020067;28;20099;-87
2022/05/25 05:45:40;;;;;;;18.63;16.83;;;;;;;18.15;100.00;99549.00;5026254;28;20064;-87
2022/05/25 05:48:09;;;;;;;18.88;16.85;;;;;;;18.16;100.00;99537.25;5007473;28;20025;-88
2022/05/25 05:50:38;;;;;;;19.38;16.70;;;;;;;18.27;100.00;99539.38;5018313;28;20100;-89
2022/05/25 05:53:07;;;;;;;18.73;17.02;;;;;;;18.32;100.00;99544.22;5031067;28;20033;-85
2022/05/25 05:55:33;;;;;;;18.40;16.70;;;;;;;18.34;100.00;99547.31;5011634;28;20483;-88
2022/05/25 05:57:59;;;;;;;17.75;15.93;;;;;;;18.40;100.00;99548.09;5030262;28;20112;-86
2022/05/25 06:00:24;;;;;;;18.05;16.27;;;;;;;18.43;100.00;99538.69;5029537;28;20139;-85
2022/05/25 06:02:50;;;;;;;17.50;14.57;;;;;;;18.50;100.00;99549.44;5031725;28;20049;-85
2022/05/25 06:05:16;;;;;;;15.82;14.23;;;;;;;18.66;100.00;99536.78;5030496;28;20406;-85
2022/05/25 06:07:42;;;;;;;16.40;14.27;;;;;;;18.94;97.19;99545.31;5012204;28;20298;-85
2022/05/25 06:10:09;;;;;;;15.05;13.45;;;;;;;19.10;96.47;99534.09;5029544;28;20033;-85
2022/05/25 06:12:34;;;;;;;14.98;13.45;;;;;;;19.30;95.19;99547.19;5028942;28;20491;-85
2022/05/25 06:19:25;;;;;;;14.45;12.07;;;;;;;19.63;94.21;99545.72;5010696;28;20052;-85
2022/05/25 06:20:30;;;;;;;13.70;11.95;;;;;;;19.89;90.27;99537.78;5028691;28;20033;-85
2022/05/25 06:22:55;;;;;;;13.18;11.95;;;;;;;20.13;89.36;99546.44;5029571;28;20453;-85
2022/05/25 06:25:21;;;;;;;12.70;11.50;;;;;;;20.23;87.83;99542.06;5030654;28;20037;-85
2022/05/25 06:27:47;;;;;;;13.68;12.25;;;;;;;20.47;86.65;99550.75;5029970;28;20550;-85
2022/05/25 06:30:13;;;;;;;12.27;10.82;;;;;;;20.64;84.54;99552.72;5031051;28;20038;-85
2022/05/25 06:32:38;;;;;;;11.85;10.75;;;;;;;20.74;83.06;99551.94;5031097;28;20109;-85
2022/05/25 06:35:04;;;;;;;11.10;9.73;;;;;;;20.84;80.77;99553.16;5031322;28;20065;-85
2022/05/25 06:37:30;;;;;;;10.65;9.55;;;;;;;20.96;80.71;99556.69;5030401;28;20140;-85
2022/05/25 06:39:55;;;;;;;11.60;10.40;;;;;;;21.00;80.03;99553.59;5031213;28;20080;-85
2022/05/25 06:42:21;;;;;;;13.93;10.60;;;;;;;21.17;80.18;99568.41;5031283;28;20096;-85
2022/05/25 06:44:52;;;;;;;11.95;10.75;;;;;;;21.28;79.27;99548.59;5013611;28;20052;-85
2022/05/25 06:47:19;;;;;;;12.30;11.00;;;;;;;21.47;78.58;99554.38;5030348;28;20033;-85
2022/05/25 06:49:45;;;;;;;11.95;10.80;;;;;;;21.53;78.59;99564.34;5030929;28;20053;-85
2022/05/25 06:52:12;;;;;;;12.10;10.85;;;;;;;21.63;77.81;99564.78;5031112;28;20088;-85
2022/05/25 06:54:38;;;;;;;13.93;11.20;;;;;;;21.76;77.69;99570.56;5013220;28;20040;-85
2022/05/25 06:57:04;;;;;;;12.27;10.68;;;;;;;21.72;76.77;99564.44;5013346;28;20461;-85
2022/05/25 06:59:29;;;;;;;12.57;11.15;;;;;;;21.90;76.68;99571.50;5012997;28;20282;-84
2022/05/25 07:01:55;;;;;;;13.82;10.60;;;;;;;21.88;76.63;99567.13;5030465;28;20037;-85
2022/05/25 07:04:21;;;;;;;11.38;10.30;;;;;;;21.98;76.72;99567.59;5030707;28;20108;-86
2022/05/25 07:06:47;;;;;;;10.68;9.57;;;;;;;22.14;75.69;99565.91;5030696;28;20033;-85
2022/05/25 07:09:13;;;;;;;11.93;9.75;;;;;;;22.37;75.09;99566.44;5012955;28;20041;-85
2022/05/25 07:11:39;;;;;;;12.30;10.57;;;;;;;22.33;74.39;99556.22;5030672;28;20039;-85
2022/05/25 07:14:05;;;;;;;11.50;10.40;;;;;;;22.43;73.71;99564.34;5030896;28;20368;-85
2022/05/25 07:16:31;;;;;;;12.90;10.48;;;;;;;22.53;74.33;99568.31;5013020;28;20029;-85
2022/05/25 07:18:57;;;;;;;11.13;9.60;;;;;;;22.37;74.26;99569.28;5012981;28;20430;-85
2022/05/25 07:21:27;;;;;;;10.45;9.35;;;;;;;22.52;73.87;99567.59;5030824;28;20029;-85
2022/05/25 07:23:55;;;;;;;12.10;9.80;;;;;;;22.81;74.06;99565.97;5030599;28;20033;-86
2022/05/25 07:26:22;;;;;;;11.02;9.82;;;;;;;22.93;73.32;99567.34;5030904;28;20034;-85
2022/05/25 07:28:49;;;;;;;10.30;9.20;;;;;;;23.07;72.68;99576.69;5030164;28;20029;-86
2022/05/25 07:31:25;;;;;;;11.93;9.38;;;;;;;23.10;71.79;99576.38;5013285;28;20424;-85
2022/05/25 07:34:03;;;;;;;10.02;8.60;;;;;;;23.35;71.25;99567.81;5029158;28;20042;-85
2022/05/25 07:36:30;;;;;;;11.70;9.95;;;;;;;23.25;69.88;99579.53;5030347;28;20037;-86
2022/05/25 07:38:58;;;;;;;11.15;9.60;;;;;;;23.08;69.81;99573.34;5012811;28;20021;-85
2022/05/25 07:41:24;;;;;;;12.10;8.95;;;;;;;23.00;71.08;99575.25;5013032;28;20108;-85
2022/05/25 07:43:57;;;;;;;10.38;9.35;;;;;;;23.22;70.77;99574.94;5012438;28;20524;-85
2022/05/25 07:46:24;;;;;;;10.70;9.10;;;;;;;23.28;69.81;99579.75;5030584;28;20041;-86
2022/05/25 07:48:50;;;;;;;10.73;9.63;;;;;;;23.16;69.96;99585.59;5030061;28;20044;-86
2022/05/25 07:51:16;;;;;;;12.20;10.23;;;;;;;23.35;68.98;99587.63;5029073;28;20395;-86
2022/05/25 07:53:59;;;;;;;11.23;10.15;;;;;;;23.38;70.23;99589.38;5012556;28;20490;-86
2022/05/25 07:56:30;;;;;;;10.45;9.35;;;;;;;23.41;69.75;99597.59;5015496;28;20506;-86
2022/05/25 07:59:00;;;;;;;9.93;8.93;;;;;;;23.68;69.98;99585.09;5032641;28;20037;-86
2022/05/25 08:06:58;;;;;;;10.10;9.20;;;;;;;24.00;68.32;99593.59;5019039;28;20037;-86
2022/05/25 08:09:24;;;;;;;11.85;9.35;;;;;;;24.04;66.86;99599.72;5033886;28;20041;-86
2022/05/25 08:11:49;;;;;;;10.68;9.65;;;;;;;23.98;66.69;99601.84;5016410;28;20601;-86
2022/05/25 08:14:15;;;;;;;9.65;8.70;;;;;;;24.11;67.54;99593.41;5015809;28;20040;-86
2022/05/25 08:16:41;;;;;;;10.80;9.70;;;;;;;24.17;66.20;99598.25;5015915;28;20041;-86
2022/05/25 08:19:06;;;;;;;10.60;9.25;;;;;;;24.18;65.51;99597.72;5016124;28;20036;-86
2022/05/25 08:21:32;;;;;;;10.60;8.77;;;;;;;24.18;64.59;99591.28;5015926;28;20055;-86
2022/05/25 08:23:57;;;;;;;14.70;9.20;;;;;;;24.31;65.45;99594.13;5033590;28;20037;-86
2022/05/25 08:26:23;;;;;;;12.40;8.52;;;;;;;24.49;64.53;99588.38;5033851;28;20022;-86
2022/05/25 08:28:48;;;;;;;10.10;8.07;;;;;;;24.74;63.24;99605.94;5033348;28;20127;-85
2022/05/25 08:31:14;;;;;;;10.50;9.50;;;;;;;25.07;63.52;99590.34;5033820;28;20069;-86
2022/05/25 08:33:39;;;;;;;10.25;8.82;;;;;;;25.34;61.89;99605.25;5015378;28;20037;-87
2022/05/25 08:36:05;;;;;;;11.45;8.45;;;;;;;25.75;62.69;99598.91;5033807;28;20029;-87
2022/05/25 08:38:31;;;;;;;9.65;8.20;;;;;;;25.73;61.74;99599.44;5033414;28;20096;-86
2022/05/25 08:40:58;;;;;;;9.93;8.82;;;;;;;25.31;62.66;99595.00;5033479;28;20033;-86
2022/05/25 08:43:35;;;;;;;9.70;8.63;;;;;;;24.89;65.15;99596.91;5033383;28;20494;-87
2022/05/25 08:46:04;;;;;;;10.18;9.20;;;;;;;25.43;63.70;99593.44;5033488;28;20041;-87
2022/05/25 08:48:31;;;;;;;10.88;9.68;;;;;;;25.38;63.94;99597.16;5031986;28;20539;-86
2022/05/25 08:51:06;;;;;;;10.95;9.95;;;;;;;25.23;64.57;99588.47;5033368;28;20037;-85
2022/05/25 08:53:33;;;;;;;10.60;9.60;;;;;;;25.02;64.90;99588.38;5015367;28;20037;-85
2022/05/25 08:55:59;;;;;;;14.00;9.07;;;;;;;25.05;65.37;99593.72;5033277;28;20501;-85
2022/05/25 08:58:30;;;;;;;11.25;9.07;;;;;;;24.71;65.44;99592.09;5033071;28;20120;-85
2022/05/25 09:00:58;;;;;;;11.82;10.50;;;;;;;24.51;65.24;99597.09;5031703;28;20052;-85
2022/05/25 09:03:37;;;;;;;12.00;10.90;;;;;;;24.35;65.90;99601.00;4998623;28;20049;-85
2022/05/25 09:06:32;;;;;;;10.07;9.07;;;;;;;24.86;67.38;99589.50;4995852;28;20030;-85
2022/05/25 09:09:25;;;;;;;10.68;9.35;;;;;;;25.43;65.13;99599.09;5012322;28;20153;-85
2022/05/25 09:12:03;;;;;;;12.35;9.18;;;;;;;25.72;63.75;99608.53;5013069;28;20496;-86
2022/05/25 09:14:35;;;;;;;10.02;9.10;;;;;;;25.34;64.25;99602.41;5013107;28;20034;-85
2022/05/25 09:17:06;;;;;;;11.38;9.52;;;;;;;25.17;63.73;99594.25;5013281;28;20117;-85
2022/05/25 09:19:37;;;;;;;11.82;8.88;;;;;;;25.22;64.16;99603.97;5013038;28;20080;-86
2022/05/25 09:22:09;;;;;;;11.75;9.48;;;;;;;25.47;62.57;99602.38;5013077;28;20112;-85
2022/05/25 09:24:35;;;;;;;11.43;9.20;;;;;;;25.48;62.73;99603.88;4995151;28;20479;-85
2022/05/25 09:27:03;;;;;;;10.13;9.23;;;;;;;25.43;62.53;99601.94;4995499;28;20038;-85
2022/05/25 09:29:28;;;;;;;12.23;9.20;;;;;;;25.76;62.03;99604.00;5012578;28;20048;-85
2022/05/25 09:32:20;;;;;;;8.82;7.93;;;;;;;25.95;61.46;99601.00;5012702;28;20041;-85
2022/05/25 09:35:15;;;;;;;9.45;7.80;;;;;;;26.53;60.86;99611.91;4994884;28;20110;-85
2022/05/25 09:38:03;;;;;;;9.65;8.05;;;;;;;27.05;59.15;99605.06;5007673;28;20550;-86
2022/05/25 09:40:35;;;;;;;9.23;8.20;;;;;;;27.37;57.84;99607.47;4994956;28;20210;-85
2022/05/25 09:43:04;;;;;;;9.63;8.73;;;;;;;27.31;56.40;99621.88;4995034;28;20530;-85
2022/05/25 09:45:39;;;;;;;9.57;8.30;;;;;;;27.27;56.20;99618.63;4994981;28;20042;-86
2022/05/25 09:48:19;;;;;;;12.30;8.32;;;;;;;27.20;56.38;99605.13;5011464;28;20128;-86
2022/05/25 09:50:46;;;;;;;9.68;7.78;;;;;;;27.01;57.42;99621.75;5011847;28;20038;-86
2022/05/25 09:53:16;;;;;;;8.68;7.88;;;;;;;27.05;56.54;99618.53;5011108;28;20494;-85
2022/05/25 09:55:45;;;;;;;8.50;7.70;;;;;;;27.29;56.72;99615.22;4994834;28;20042;-86
2022/05/25 09:58:38;;;;;;;10.23;8.27;;;;;;;27.50;54.46;99621.56;5012395;28;20022;-86
2022/05/25 10:01:06;;;;;;;8.50;7.65;;;;;;;27.44;55.66;99618.13;4982475;28;20052;-86
2022/05/25 10:03:38;;;;;;;8.18;7.15;;;;;;;27.70;56.68;99612.13;5011885;28;20100;-86
2022/05/25 10:06:18;;;;;;;8.73;7.40;;;;;;;27.68;54.42;99622.59;4994832;28;20030;-86
2022/05/25 10:08:44;;;;;;;9.38;7.40;;;;;;;27.62;54.97;99622.75;5011525;28;20038;-85
2022/05/25 10:11:32;;;;;;;7.28;6.57;;;;;;;27.52;55.65;99618.94;4975119;28;20503;-86
2022/05/25 10:14:39;;;;;;;7.88;7.00;;;;;;;27.36;55.35;99623.03;4994210;28;20046;-85
2022/05/25 10:17:11;;;;;;;8.10;7.30;;;;;;;27.22;55.76;99624.47;4970550;28;20043;-85
2022/05/25 10:19:51;;;;;;;8.45;7.50;;;;;;;26.76;55.88;99626.31;5006544;28;20109;-85
2022/05/25 10:22:42;;;;;;;9.98;8.85;;;;;;;26.74;56.38;99623.25;5011860;28;20061;-85
2022/05/25 10:25:19;;;;;;;11.68;8.07;;;;;;;26.44;56.62;99629.50;5011731;28;20407;-85
2022/05/25 10:27:45;;;;;;;9.15;7.45;;;;;;;26.40;58.06;99621.31;5010489;28;20045;-85
2022/05/25 10:39:31;;;;;;;8.20;6.10;;;;;;;27.41;56.18;99624.97;5011519;28;20045;-85
2022/05/25 10:42:05;;;;;;;8.25;6.90;;;;;;;26.98;55.94;99630.63;5011687;28;20038;-86
2022/05/25 10:45:10;;;;;;;8.18;7.00;;;;;;;26.97;55.33;99620.56;5011469;28;20041;-85
2022/05/25 10:47:57;;;;;;;8.48;7.10;;;;;;;26.86;55.55;99622.41;5011534;28;20048;-85
2022/05/25 10:50:34;;;;;;;7.03;6.22;;;;;;;26.98;56.05;99622.06;4993689;28;20042;-85
2022/05/25 10:56:52;;;;;;;6.80;6.10;;;;;;;27.73;56.27;99624.50;4998534;28;20708;-85
2022/05/25 10:59:37;;;;;;;7.32;5.90;;;;;;;27.81;53.52;99617.50;4998282;28;20046;-85
2022/05/25 11:02:30;;;;;;;6.35;5.75;;;;;;;27.65;53.41;99627.34;4983556;28;20073;-88
2022/05/25 11:05:09;;;;;;;6.75;5.70;;;;;;;27.41;53.71;99624.97;5017602;28;20041;-88
2022/05/25 11:07:42;;;;;;;7.05;5.68;;;;;;;27.36;53.97;99625.88;5004276;28;20705;-88
2022/05/25 11:10:38;;;;;;;8.13;5.72;;;;;;;27.72;53.81;99625.81;5020296;28;20090;-88
2022/05/25 11:13:31;;;;;;;6.07;5.13;;;;;;;27.88;53.79;99633.09;5019320;28;20037;-88
2022/05/25 11:16:29;;;;;;;7.43;5.95;;;;;;;27.47;54.44;99639.03;5030896;28;20041;-87
2022/05/25 11:19:03;;;;;;;6.60;5.97;;;;;;;27.22;54.99;99642.31;5013597;28;20116;-87
2022/05/25 11:21:45;;;;;;;7.72;5.93;;;;;;;27.19;54.30;99643.47;5029782;28;20044;-87
2022/05/25 11:24:20;;;;;;;7.43;5.70;;;;;;;27.07;54.17;99641.50;5013382;28;20040;-85
2022/05/25 11:26:57;;;;;;;6.70;5.88;;;;;;;26.84;55.02;99630.75;5030703;28;20125;-85
2022/05/25 11:29:41;;;;;;;7.93;5.53;;;;;;;27.12;56.19;99643.41;5031724;28;20041;-84
2022/05/25 11:32:36;;;;;;;7.25;5.40;;;;;;;27.47;53.74;99636.94;5030593;28;20056;-84
2022/05/25 11:35:28;;;;;;;7.13;5.80;;;;;;;27.46;54.31;99638.25;4996356;28;20054;-84
2022/05/25 11:38:01;;;;;;;6.80;5.13;;;;;;;27.39;54.75;99633.28;4998475;28;20034;-84
2022/05/25 11:40:29;;;;;;;7.47;5.70;;;;;;;27.81;54.19;99628.91;5024984;28;21010;-84
2022/05/25 11:43:01;;;;;;;6.63;5.93;;;;;;;28.15;52.92;99622.09;5022459;28;20176;-84
2022/05/25 11:45:39;;;;;;;5.25;4.85;;;;;;;28.11;54.12;99611.09;5023926;28;20453;-84
2022/05/25 11:48:19;;;;;;;5.95;5.32;;;;;;;28.51;52.05;99619.81;5015677;28;20065;-84
2022/05/25 11:51:02;;;;;;;8.55;5.07;;;;;;;28.50;51.85;99618.31;5023930;28;20133;-84
2022/05/25 11:53:48;;;;;;;6.60;5.00;;;;;;;28.07;51.14;99627.78;5024864;28;20040;-84
2022/05/25 11:56:33;;;;;;;5.63;5.13;;;;;;;27.74;53.71;99618.22;5008180;28;20033;-84
2022/05/25 11:59:17;;;;;;;7.93;5.20;;;;;;;27.86;53.32;99620.75;5024692;28;20032;-84
2022/05/25 12:01:53;;;;;;;7.97;5.45;;;;;;;27.17;52.95;99616.88;5025144;28;20510;-87
2022/05/25 12:04:45;;;;;;;7.25;5.45;;;;;;;26.90;55.41;99616.34;5036196;28;20021;-86
2022/05/25 12:07:32;;;;;;;7.82;5.68;;;;;;;27.21;54.21;99600.19;5030115;28;20056;-87
2022/05/25 12:10:18;;;;;;;5.93;5.15;;;;;;;27.76;53.02;99604.19;5032370;28;20060;-87
2022/05/25 12:13:09;;;;;;;6.47;5.07;;;;;;;28.08;51.45;99600.03;5032759;28;20033;-87
2022/05/25 12:15:59;;;;;;;8.52;5.13;;;;;;;28.17;50.77;99591.72;5032285;28;20058;-87
2022/05/25 12:18:47;;;;;;;5.63;5.10;;;;;;;28.42;51.63;99596.84;5030040;28;20034;-87
2022/05/25 12:21:37;;;;;;;5.20;4.70;;;;;;;28.63;50.04;99592.41;5030834;28;20033;-86
2022/05/25 12:24:17;;;;;;;7.03;5.00;;;;;;;28.59;49.78;99597.00;5030182;28;20096;-87
2022/05/25 12:26:44;;;;;;;5.80;4.95;;;;;;;28.57;51.38;99577.59;5014230;28;20038;-87
2022/05/25 12:29:20;;;;;;;7.20;4.97;;;;;;;28.96;49.95;99590.47;5031370;28;20044;-87
2022/05/25 12:31:47;;;;;;;6.47;5.32;;;;;;;29.10;50.43;99582.41;5029913;28;20033;-87
2022/05/25 12:34:15;;;;;;;5.43;4.72;;;;;;;29.07;49.57;99586.44;5031252;28;20049;-87
2022/05/25 12:36:44;;;;;;;5.22;4.72;;;;;;;28.64;48.84;99587.47;5011195;28;20072;-87
2022/05/25 12:39:10;;;;;;;5.55;4.57;;;;;;;28.59;48.83;99586.34;5027791;28;20033;-85
2022/05/25 12:41:38;;;;;;;6.05;4.72;;;;;;;28.27;49.34;99578.38;5031559;28;20394;-85
2022/05/25 12:49:54;;;;;;;6.82;5.20;;;;;;;28.02;49.11;99574.59;5032846;28;20045;-85
2022/05/25 12:52:29;;;;;;;10.52;5.30;;;;;;;28.52;49.19;99575.69;5033219;28;20045;-85
2022/05/25 12:55:06;;;;;;;5.55;5.05;;;;;;;28.90;48.83;99569.94;5032953;28;20034;-85
2022/05/25 12:58:02;;;;;;;6.32;4.53;;;;;;;29.11;48.54;99575.38;5015778;28;20383;-85
2022/05/25 13:00:28;;;;;;;9.05;5.00;;;;;;;29.38;48.75;99585.00;5020102;28;20395;-85
2022/05/25 13:02:53;;;;;;;7.72;4.75;;;;;;;29.40;49.10;99570.88;5031400;28;20049;-85
2022/05/25 13:05:58;;;;;;;6.32;5.30;;;;;;;29.34;47.11;99595.28;5032630;28;20141;-86
2022/05/25 13:08:49;;;;;;;8.30;4.90;;;;;;;29.19;46.93;99581.81;4991949;28;20053;-85
2022/05/25 13:11:39;;;;;;;9.18;4.88;;;;;;;28.75;47.60;99586.34;5032670;28;20033;-85
2022/05/25 13:14:16;;;;;;;6.40;4.70;;;;;;;28.32;48.31;99590.16;5014734;28;20045;-85
2022/05/25 13:16:42;;;;;;;7.50;4.82;;;;;;;27.76;49.48;99581.38;5029050;28;20044;-86
2022/05/25 13:19:30;;;;;;;5.47;4.95;;;;;;;27.40;49.95;99592.09;5026103;28;20029;-85
2022/05/25 13:22:02;;;;;;;5.65;4.45;;;;;;;27.12;51.29;99606.41;5022278;28;20026;-85
2022/05/25 13:24:49;;;;;;;7.70;4.80;;;;;;;27.04;52.16;99599.91;5020525;28;20030;-84
2022/05/25 13:27:24;;;;;;;5.63;4.38;;;;;;;26.84;53.27;99602.28;5022432;28;20068;-85
2022/05/25 13:30:23;;;;;;;6.25;4.40;;;;;;;26.74;53.92;99612.63;5025848;28;20037;-86
2022/05/25 13:32:53;;;;;;;6.60;4.72;;;;;;;26.51;52.96;99614.56;5026624;28;20131;-85
2022/05/25 13:35:18;;;;;;;8.13;4.43;;;;;;;26.46;53.34;99618.31;5015317;28;20395;-85
2022/05/25 13:37:45;;;;;;;6.25;4.57;;;;;;;26.38;53.09;99612.56;5045724;28;20029;-88
2022/05/25 13:40:11;;;;;;;6.78;4.65;;;;;;;26.29;54.87;99615.91;5016532;28;20036;-88
2022/05/25 13:42:39;;;;;;;5.43;4.57;;;;;;;26.18;53.73;99618.25;5015577;28;20038;-87
2022/05/25 13:45:07;;;;;;;5.20;4.30;;;;;;;26.15;54.22;99620.13;5028665;28;20054;-88
2022/05/25 13:47:33;;;;;;;7.88;4.55;;;;;;;26.15;53.63;99622.19;5012534;28;20512;-87
2022/05/25 13:50:00;;;;;;;7.75;4.97;;;;;;;26.13;54.26;99619.13;5012164;28;20045;-88
2022/05/25 13:52:31;;;;;;;7.72;4.35;;;;;;;25.97;53.99;99624.69;5029440;28;20033;-88
2022/05/25 13:55:02;;;;;;;6.80;4.15;;;;;;;25.77;54.92;99633.19;5012286;28;20510;-86
2022/05/25 13:57:50;;;;;;;7.13;4.30;;;;;;;25.74;55.37;99618.03;5007643;28;20041;-84
2022/05/25 14:00:31;;;;;;;7.07;4.28;;;;;;;25.66;56.12;99628.53;5011022;28;20046;-84
2022/05/25 14:03:03;;;;;;;7.18;4.00;;;;;;;25.55;55.74;99622.34;5025825;28;20638;-83
2022/05/25 14:05:34;;;;;;;6.60;3.95;;;;;;;25.37;56.91;99618.31;5016132;28;20041;-83
2022/05/25 14:08:18;;;;;;;8.25;3.75;;;;;;;25.34;57.46;99620.19;5000654;28;20119;-83
2022/05/25 14:11:02;;;;;;;6.65;3.80;;;;;;;25.25;58.89;99611.38;5019035;28;20663;-83
2022/05/25 14:13:35;;;;;;;4.38;3.22;;;;;;;25.31;58.51;99623.38;4968781;28;20040;-83
2022/05/25 14:16:01;;;;;;;;;;;;;;;25.24;57.83;99629.69;5030227;28;20033;-83
2022/05/25 14:18:28;;;;;;;7.18;3.13;;;;;;;25.13;57.65;99644.13;5039274;28;19917;-87
2022/05/25 14:20:54;;;;;;;5.00;3.10;;;;;;;24.90;58.32;99646.66;5032003;28;20122;-87
2022/05/25 14:23:26;;;;;;;3.58;2.70;;;;;;;24.67;59.35;99646.28;5050295;28;20040;-87
2022/05/25 14:26:10;;;;;;;4.97;2.63;;;;;;;24.35;60.53;99639.91;5050746;28;20036;-88
2022/05/25 14:28:38;;;;;;;4.03;2.38;;;;;;;24.20;61.35;99663.09;5049453;28;20098;-87
2022/05/25 14:31:05;;;;;;;3.50;2.40;;;;;;;24.11;61.74;99674.81;5047619;28;20107;-88
2022/05/25 14:33:31;;;;;;;4.72;2.50;;;;;;;23.99;62.64;99681.94;5030508;28;20037;-87
2022/05/25 14:36:00;;;;;;;4.20;2.67;;;;;;;23.78;61.91;99676.06;5031120;28;20040;-87
2022/05/25 14:38:51;;;;;;;5.22;2.50;;;;;;;23.54;63.28;99673.34;5030832;28;20033;-87
2022/05/25 14:41:45;;;;;;;4.95;2.40;;;;;;;23.35;63.86;99678.97;5027039;28;20202;-88
2022/05/25 14:44:38;;;;;;;3.00;2.03;;;;;;;23.05;63.97;99667.00;5049358;28;20072;-87
2022/05/25 14:47:35;;;;;;;6.25;2.25;;;;;;;22.72;64.87;99679.44;5032454;28;20037;-88
2022/05/25 14:50:21;;;;;;;5.10;2.63;;;;;;;22.55;65.44;99667.50;5048569;28;20095;-88
2022/05/25 14:52:59;;;;;;;3.88;1.88;;;;;;;22.36;64.00;99658.19;5033079;28;20115;-89
2022/05/25 14:55:27;;;;;;;6.30;1.90;;;;;;;22.17;63.56;99660.88;5050816;28;20041;-88
2022/05/25 14:58:11;;;;;;;3.05;1.50;;;;;;;22.02;64.21;99637.91;5050591;28;20547;-88
2022/05/25 15:00:39;;;;;;;3.33;1.45;;;;;;;21.84;63.66;99647.75;5045068;28;20041;-87
2022/05/25 15:03:05;;;;;;;1.60;1.23;;;;;;;21.64;64.12;99653.78;5012559;28;20108;-88
2022/05/25 15:05:37;;;;;;;6.32;1.58;;;;;;;21.49;64.64;99673.91;5012913;28;20144;-89
2022/05/25 15:08:03;;;;;;;7.47;1.70;;;;;;;20.91;66.09;99668.19;5030070;28;20032;-89
2022/05/25 15:10:36;;;;;;;2.83;1.50;;;;;;;20.60;67.44;99682.63;5030904;28;20463;-89
2022/05/25 15:13:03;;;;;;;7.60;1.55;;;;;;;20.34;68.65;99682.16;5030730;28;20394;-89
2022/05/25 15:18:36;;;;;;;3.70;1.50;;;;;;;19.97;70.48;99794.97;5030707;28;20372;-90
2022/05/25 15:21:04;;;;;;;6.70;1.60;;;;;;;19.71;71.77;99864.69;5030156;28;20380;-90
2022/05/25 15:23:37;;;;;;;7.75;2.20;;;;;;;19.28;79.62;99833.75;5013050;28;20041;-88